Terminal Aerodrome Forecast
Issued by NWS Wilmington, OH

Current Version | Previous Version | Text Only | Print | Product List | Glossary Off
Versions: 1 2 3 4 5 6 7 8 9 10 11 12 13 14 15 16 17 18 19 20 21

445
FTUS41 KILN 260540
TAFILN
TAF
KILN 260540Z 2606/2706 20006KT P6SM FEW050 BKN150
     FM260900 21007KT P6SM BKN030
     FM261200 22009KT P6SM BKN015
     FM261900 22010KT P6SM BKN035
     FM270100 19005KT P6SM FEW040 SCT250=

USA.gov is the U.S. government's official web portal to all federal, state and local government web resources and services.